Time;durP1;ratioP1;P1;durP2;ratioP2;P2;SDS_P1;SDS_P2;PMS_P1;PMS_P2;Temp;Humidity;BMP_temperature;BMP_pressure;BME280_temperature;BME280_humidity;BME280_pressure;Samples;Min_cycle;Max_cycle;Signal;HPM_P1;HPM_P2
2021/03/25 00:01:14;;;;;;;6.30;4.00;;;;;;;24.62;24.06;97071.88;5014551;28;20126;-27
2021/03/25 00:03:40;;;;;;;6.15;3.65;;;;;;;24.63;24.24;97065.69;5013606;28;20037;-27
2021/03/25 00:06:05;;;;;;;5.68;3.80;;;;;;;24.64;24.23;97064.81;5021454;28;20032;-27
2021/03/25 00:08:31;;;;;;;6.80;3.85;;;;;;;24.66;24.13;97060.34;5031717;28;20036;-27
2021/03/25 00:10:56;;;;;;;6.43;4.00;;;;;;;24.66;24.19;97060.34;5030593;28;20032;-29
2021/03/25 00:13:22;;;;;;;6.65;4.13;;;;;;;24.66;24.09;97058.56;5036177;28;20033;-27
2021/03/25 00:15:47;;;;;;;5.53;3.92;;;;;;;24.67;24.35;97054.16;5014337;28;20026;-28
2021/03/25 00:18:13;;;;;;;5.53;3.70;;;;;;;24.67;24.23;97051.53;5030802;28;20489;-28
2021/03/25 00:20:38;;;;;;;5.07;3.67;;;;;;;24.68;24.48;97053.28;5030334;28;20477;-27
2021/03/25 00:23:04;;;;;;;6.63;4.00;;;;;;;24.67;24.35;97044.53;5037362;28;20052;-27
2021/03/25 00:25:32;;;;;;;4.55;3.50;;;;;;;24.68;24.20;97045.41;5035454;28;20029;-28
2021/03/25 00:27:57;;;;;;;5.55;3.63;;;;;;;24.69;24.30;97044.47;5030198;28;20033;-26
2021/03/25 00:30:25;;;;;;;5.25;3.50;;;;;;;24.70;24.28;97042.72;5036234;28;20037;-26
2021/03/25 00:32:51;;;;;;;4.45;3.45;;;;;;;24.70;24.56;97048.78;5026554;28;20060;-27
2021/03/25 00:35:17;;;;;;;4.05;3.22;;;;;;;24.71;24.35;97044.41;5035273;28;20154;-27
2021/03/25 00:37:42;;;;;;;4.55;3.17;;;;;;;24.70;24.56;97043.56;5015023;28;20029;-28
2021/03/25 00:40:08;;;;;;;4.10;3.33;;;;;;;24.71;24.65;97040.00;5034497;28;20071;-26
2021/03/25 00:42:34;;;;;;;6.07;3.50;;;;;;;24.71;24.55;97033.94;5036411;28;20033;-27
2021/03/25 00:44:59;;;;;;;5.28;3.17;;;;;;;24.71;24.62;97034.75;5035311;28;20025;-28
2021/03/25 00:47:25;;;;;;;4.18;3.20;;;;;;;24.71;24.52;97032.16;5031158;28;20036;-27
2021/03/25 00:49:50;;;;;;;4.53;3.30;;;;;;;24.72;24.63;97031.25;5034913;28;20022;-27
2021/03/25 00:52:16;;;;;;;4.35;2.90;;;;;;;24.73;24.65;97032.09;5012905;28;20725;-27
2021/03/25 00:54:42;;;;;;;5.43;3.25;;;;;;;24.74;24.71;97029.41;5030956;28;20036;-27
2021/03/25 00:57:07;;;;;;;3.63;2.92;;;;;;;24.73;24.63;97030.31;5029996;28;20029;-26
2021/03/25 00:59:32;;;;;;;3.85;3.05;;;;;;;24.73;24.71;97027.69;5034437;28;20587;-26
2021/03/25 01:01:59;;;;;;;4.38;2.75;;;;;;;24.74;24.57;97028.53;5031978;28;20480;-27
2021/03/25 01:04:24;;;;;;;4.15;2.78;;;;;;;24.75;24.67;97030.25;5024555;28;20469;-27
2021/03/25 01:06:50;;;;;;;4.00;3.10;;;;;;;24.74;24.57;97024.16;5035391;28;20025;-26
2021/03/25 01:09:26;;;;;;;3.72;2.75;;;;;;;24.75;24.57;97020.59;5036696;28;20036;-26
2021/03/25 01:11:52;;;;;;;4.35;2.75;;;;;;;24.75;24.68;97025.00;5032537;28;20481;-26
2021/03/25 01:14:20;;;;;;;3.70;3.00;;;;;;;24.75;24.66;97019.78;5032517;28;20112;-27
2021/03/25 01:16:45;;;;;;;4.43;3.05;;;;;;;24.76;24.50;97018.84;5019225;28;20013;-29
2021/03/25 01:19:18;;;;;;;4.60;2.88;;;;;;;24.76;24.78;97011.84;5031073;28;20033;-27
2021/03/25 01:21:44;;;;;;;5.65;3.17;;;;;;;24.75;24.77;97015.38;5034889;28;20098;-26
2021/03/25 01:24:09;;;;;;;4.03;2.97;;;;;;;24.75;24.56;97010.13;5015876;28;22464;-28
2021/03/25 01:26:35;;;;;;;3.28;2.67;;;;;;;24.75;24.72;97004.88;5030885;28;20029;-28
2021/03/25 01:29:00;;;;;;;3.95;2.70;;;;;;;24.76;24.82;97003.97;5031631;28;20037;-26
2021/03/25 01:31:27;;;;;;;3.40;2.50;;;;;;;24.76;24.93;97006.59;5029636;28;20052;-26
2021/03/25 01:33:52;;;;;;;3.63;2.53;;;;;;;24.76;24.65;96998.75;5034971;28;20029;-28
2021/03/25 01:36:18;;;;;;;3.35;2.47;;;;;;;24.76;24.99;96998.75;5027458;28;20111;-29
2021/03/25 01:38:43;;;;;;;4.22;2.53;;;;;;;24.76;24.68;96998.75;5032367;28;20060;-27
2021/03/25 01:41:09;;;;;;;4.35;2.53;;;;;;;24.76;24.76;96993.50;5027686;28;20024;-30
2021/03/25 01:43:37;;;;;;;5.10;2.17;;;;;;;24.77;24.84;96992.56;5032608;28;20090;-27
2021/03/25 01:46:20;;;;;;;3.13;2.72;;;;;;;24.76;24.90;96990.88;5012487;28;20091;-27
2021/03/25 01:48:48;;;;;;;4.88;2.85;;;;;;;24.76;24.90;96990.88;5030653;28;20021;-26
2021/03/25 01:51:47;;;;;;;6.55;2.63;;;;;;;24.75;24.76;96989.16;5028287;28;20027;-27
2021/03/25 01:54:43;;;;;;;3.22;2.50;;;;;;;24.76;24.86;96980.41;5031059;28;20051;-26
2021/03/25 01:57:27;;;;;;;2.75;2.17;;;;;;;24.77;24.81;96983.84;5032842;28;20496;-26
2021/03/25 02:00:11;;;;;;;2.72;2.45;;;;;;;24.76;24.92;96976.91;5031173;28;20047;-28
2021/03/25 02:02:59;;;;;;;2.35;2.15;;;;;;;24.76;24.88;96974.28;5030834;28;20374;-26
2021/03/25 02:05:40;;;;;;;2.83;2.20;;;;;;;24.76;24.93;96974.28;5029102;28;20306;-26
2021/03/25 02:08:17;;;;;;;3.10;2.30;;;;;;;24.75;25.08;96978.66;5029629;28;20130;-27
2021/03/25 02:11:20;;;;;;;3.28;2.13;;;;;;;24.74;25.00;96971.75;5026653;28;20029;-27
2021/03/25 02:14:10;;;;;;;3.20;2.40;;;;;;;24.74;24.97;96974.34;5033502;28;20025;-27
2021/03/25 02:16:48;;;;;;;2.60;2.17;;;;;;;24.75;24.94;96964.75;5014220;28;20033;-26
2021/03/25 02:19:53;;;;;;;3.08;2.45;;;;;;;24.74;25.11;96966.50;5029876;28;20464;-27
2021/03/25 02:22:28;;;;;;;3.95;2.30;;;;;;;24.74;24.91;96966.50;5012592;28;20032;-27
2021/03/25 02:25:07;;;;;;;3.05;2.10;;;;;;;24.74;25.09;96966.50;5028179;28;20253;-26
2021/03/25 02:27:42;;;;;;;3.83;2.60;;;;;;;24.74;24.92;96966.50;5014919;28;20029;-26
2021/03/25 02:30:10;;;;;;;4.50;2.20;;;;;;;24.73;25.12;96963.94;5031433;28;20036;-27
2021/03/25 02:32:44;;;;;;;3.42;2.10;;;;;;;24.73;25.11;96959.56;5014882;28;20529;-27
2021/03/25 02:35:20;;;;;;;3.03;2.25;;;;;;;24.71;25.34;96952.69;5021255;28;20087;-27
2021/03/25 02:37:47;;;;;;;2.80;2.00;;;;;;;24.74;25.14;96956.00;5019067;28;20032;-28
2021/03/25 02:40:33;;;;;;;2.83;2.20;;;;;;;24.73;25.11;96956.94;5012598;28;20059;-27
2021/03/25 02:43:05;;;;;;;2.88;2.17;;;;;;;24.75;25.07;96960.31;5022990;28;20028;-29
2021/03/25 02:45:33;;;;;;;3.85;2.05;;;;;;;24.75;25.07;96957.72;5011884;28;20159;-27
2021/03/25 02:48:05;;;;;;;2.90;2.40;;;;;;;24.74;25.23;96956.00;5022270;28;20029;-27
2021/03/25 02:50:37;;;;;;;2.60;2.05;;;;;;;24.74;24.99;96958.63;5013519;28;20112;-28
2021/03/25 02:53:05;;;;;;;;;;;;;;;24.76;25.04;96958.56;4997253;28;20496;-27
2021/03/25 02:55:30;;;;;;;3.22;2.13;;;;;;;24.75;25.29;96957.72;5019730;28;19919;-27
2021/03/25 02:58:26;;;;;;;1.98;1.80;;;;;;;24.74;25.17;96952.53;5016861;28;20029;-27
2021/03/25 03:01:03;;;;;;;2.25;1.83;;;;;;;24.74;25.07;96950.78;5004816;28;20034;-26
2021/03/25 03:03:38;;;;;;;3.40;2.30;;;;;;;24.74;25.17;96950.78;5016391;28;20033;-27
2021/03/25 03:06:04;;;;;;;2.97;2.00;;;;;;;24.74;25.13;96956.00;5013359;28;20029;-27
2021/03/25 03:08:48;;;;;;;2.10;1.55;;;;;;;24.73;25.33;96951.69;4994294;28;20052;-26
2021/03/25 03:11:19;;;;;;;2.58;2.08;;;;;;;24.73;25.29;96943.84;5028594;28;20056;-27
2021/03/25 03:13:50;;;;;;;2.35;1.80;;;;;;;24.73;25.26;96943.84;5005314;28;20413;-28
2021/03/25 03:16:19;;;;;;;2.85;1.95;;;;;;;24.73;25.31;96946.47;5009591;28;20028;-26
2021/03/25 03:18:52;;;;;;;3.25;1.80;;;;;;;24.73;25.26;96935.97;5031434;28;20630;-27
2021/03/25 03:21:21;;;;;;;2.35;1.67;;;;;;;24.74;25.28;96935.06;5006455;28;20113;-26
2021/03/25 03:23:46;;;;;;;2.58;1.98;;;;;;;24.74;25.41;96945.53;5011079;28;20880;-26
2021/03/25 03:26:14;;;;;;;2.15;1.60;;;;;;;24.73;25.41;96938.59;5030150;28;20029;-26
2021/03/25 03:28:45;;;;;;;2.30;1.42;;;;;;;24.74;25.30;96939.44;5009383;28;20116;-28
2021/03/25 03:31:14;;;;;;;2.22;1.70;;;;;;;24.74;25.19;96939.44;5014317;28;20025;-27
2021/03/25 03:33:44;;;;;;;2.05;1.67;;;;;;;24.74;25.43;96940.28;5031839;28;20516;-27
2021/03/25 03:36:16;;;;;;;1.75;1.52;;;;;;;24.75;25.46;96939.34;5008097;28;20037;-27
2021/03/25 03:38:44;;;;;;;2.00;1.63;;;;;;;24.74;25.40;96944.66;5015148;28;20025;-27
2021/03/25 03:41:11;;;;;;;1.80;1.52;;;;;;;24.74;25.47;96944.66;5009065;28;20091;-27
2021/03/25 03:43:36;;;;;;;2.60;1.70;;;;;;;24.73;25.33;96943.84;4998695;28;20036;-26
2021/03/25 03:46:13;;;;;;;2.47;1.70;;;;;;;24.75;25.17;96946.41;5013526;28;20029;-27
2021/03/25 03:48:48;;;;;;;1.75;1.60;;;;;;;24.73;25.38;96938.59;4998506;28;20040;-26
2021/03/25 03:51:42;;;;;;;1.95;1.75;;;;;;;24.73;25.20;96951.69;5004838;28;20113;-26
2021/03/25 03:54:07;;;;;;;2.58;1.75;;;;;;;24.74;25.43;96944.66;5012089;28;20047;-28
2021/03/25 03:56:46;;;;;;;2.53;1.80;;;;;;;24.74;25.32;96945.53;5026033;28;20025;-28
2021/03/25 03:59:24;;;;;;;1.75;1.50;;;;;;;24.73;25.37;96938.59;5015156;28;20079;-27
2021/03/25 04:01:51;;;;;;;3.83;1.80;;;;;;;24.73;25.42;96942.97;5023458;28;20037;-26
2021/03/25 04:04:23;;;;;;;2.40;1.33;;;;;;;24.73;25.45;96943.84;5005068;28;20033;-27
2021/03/25 04:06:55;;;;;;;2.10;1.60;;;;;;;24.73;25.32;96943.84;5011974;28;20045;-27
2021/03/25 04:09:40;;;;;;;1.65;1.55;;;;;;;24.73;25.46;96940.34;5030789;28;20117;-28
2021/03/25 04:12:12;;;;;;;2.20;1.67;;;;;;;24.73;25.21;96937.72;5032928;28;20105;-26
2021/03/25 04:14:49;;;;;;;1.63;1.42;;;;;;;24.72;25.37;96936.91;5006886;28;20110;-26
2021/03/25 04:17:28;;;;;;;1.52;1.42;;;;;;;24.73;25.35;96949.09;5015068;28;20032;-27
2021/03/25 04:19:53;;;;;;;2.50;1.60;;;;;;;24.73;25.55;96941.22;5016793;28;20051;-27
2021/03/25 04:22:21;;;;;;;1.88;1.50;;;;;;;24.73;25.50;96932.50;5003977;28;20505;-26
2021/03/25 04:24:54;;;;;;;2.50;1.75;;;;;;;24.73;25.23;96943.84;4999230;28;20383;-27
2021/03/25 04:27:22;;;;;;;1.80;1.58;;;;;;;24.73;25.35;96941.22;5021081;28;20048;-26
2021/03/25 04:29:58;;;;;;;2.00;1.35;;;;;;;24.73;25.32;96942.97;5016922;28;20021;-26
2021/03/25 04:32:24;;;;;;;5.43;1.60;;;;;;;24.73;25.46;96938.59;5024910;28;20856;-26
2021/03/25 04:34:50;;;;;;;1.83;1.40;;;;;;;24.73;25.49;96943.84;5020954;28;20032;-26
2021/03/25 04:37:15;;;;;;;1.83;1.38;;;;;;;24.73;25.42;96938.59;5034784;28;20028;-27
2021/03/25 04:39:41;;;;;;;1.88;1.38;;;;;;;24.74;25.51;96937.66;5005490;28;20034;-28
2021/03/25 04:42:07;;;;;;;1.85;1.23;;;;;;;24.75;25.55;96947.22;5013610;28;20025;-27
2021/03/25 04:44:36;;;;;;;2.10;1.27;;;;;;;24.75;25.32;96941.97;5032332;28;20070;-26
2021/03/25 04:47:12;;;;;;;1.95;1.27;;;;;;;24.76;25.55;96937.59;5040704;28;20673;-28
2021/03/25 04:49:43;;;;;;;2.53;1.35;;;;;;;24.76;25.43;96943.72;5013593;28;20033;-27
2021/03/25 04:52:16;;;;;;;1.73;1.50;;;;;;;24.76;25.35;96937.59;5024344;28;20028;-26
2021/03/25 04:54:41;;;;;;;1.80;1.40;;;;;;;24.77;25.35;96934.91;5026429;28;20037;-28
2021/03/25 04:57:25;;;;;;;2.88;1.20;;;;;;;24.78;25.35;96934.00;5037236;28;20033;-27
2021/03/25 04:59:51;;;;;;;1.50;1.40;;;;;;;24.78;25.63;96933.13;5027641;28;20029;-27
2021/03/25 05:02:17;;;;;;;5.07;1.48;;;;;;;24.78;25.52;96936.59;5015942;28;20504;-27
2021/03/25 05:04:45;;;;;;;2.03;1.10;;;;;;;24.78;25.53;96936.59;5031227;28;20024;-29
2021/03/25 05:07:14;;;;;;;1.73;1.50;;;;;;;24.78;25.39;96939.22;5013898;28;20029;-26
2021/03/25 05:09:40;;;;;;;1.17;1.08;;;;;;;24.78;25.38;96936.59;5012663;28;20499;-26
2021/03/25 05:12:06;;;;;;;1.85;1.40;;;;;;;24.80;25.56;96933.91;5027530;28;20051;-27
2021/03/25 05:14:31;;;;;;;1.77;1.40;;;;;;;24.80;25.39;96931.28;5022747;28;20041;-26
2021/03/25 05:17:30;;;;;;;1.75;1.40;;;;;;;24.79;25.50;96935.69;5007970;28;20040;-26
2021/03/25 05:19:57;;;;;;;1.67;1.40;;;;;;;24.82;25.55;96933.84;4982965;28;20047;-27
2021/03/25 05:22:39;;;;;;;1.73;1.33;;;;;;;24.80;25.41;96940.00;5018673;28;20049;-27
2021/03/25 05:25:24;;;;;;;1.50;1.38;;;;;;;24.83;25.27;96940.78;5027940;28;20041;-26
2021/03/25 05:27:53;;;;;;;1.50;1.13;;;;;;;24.83;25.64;96946.03;5020271;28;22418;-28
2021/03/25 05:30:21;;;;;;;2.22;1.42;;;;;;;24.82;25.62;96947.78;5016361;28;20037;-27
2021/03/25 05:32:48;;;;;;;1.25;1.15;;;;;;;24.82;25.64;96955.66;5007036;28;20032;-28
2021/03/25 05:35:19;;;;;;;1.85;1.45;;;;;;;24.83;25.44;96953.88;5008633;28;20018;-27
2021/03/25 05:37:45;;;;;;;1.48;1.20;;;;;;;24.84;25.50;96955.63;5037140;28;20025;-30
2021/03/25 05:40:21;;;;;;;1.77;1.27;;;;;;;24.84;25.45;96959.09;5005325;28;20035;-26
2021/03/25 05:43:26;;;;;;;1.30;1.20;;;;;;;24.84;25.58;96956.47;5017397;28;20036;-26
2021/03/25 05:46:28;;;;;;;1.23;1.10;;;;;;;24.85;25.52;96955.56;5032923;28;20028;-26
2021/03/25 05:49:21;;;;;;;1.85;1.60;;;;;;;24.85;25.63;96958.16;5032880;28;20037;-27
2021/03/25 05:52:37;;;;;;;1.25;1.15;;;;;;;24.87;25.74;96960.72;5028464;28;20022;-26
2021/03/25 05:55:32;;;;;;;1.40;1.30;;;;;;;24.87;25.56;96960.72;5010983;28;20071;-27
2021/03/25 05:58:22;;;;;;;10.80;1.38;;;;;;;24.86;25.46;96959.03;5035472;28;20037;-26
2021/03/25 06:01:25;;;;;;;2.00;1.23;;;;;;;24.86;25.71;96962.47;5027702;28;20028;-27
2021/03/25 06:04:17;;;;;;;1.63;1.30;;;;;;;24.87;25.75;96960.72;5028731;28;20021;-26
2021/03/25 06:07:09;;;;;;;;;;;;;;;24.88;25.50;96959.78;5009708;28;20432;-27
2021/03/25 06:09:55;;;;;;;3.00;1.20;;;;;;;24.89;25.63;96964.09;5025871;28;19913;-30
2021/03/25 06:12:45;;;;;;;1.17;1.08;;;;;;;24.88;25.75;96962.41;5030605;28;20143;-27
2021/03/25 06:15:22;;;;;;;2.08;1.40;;;;;;;24.88;25.63;96963.28;5022448;28;20245;-28
2021/03/25 06:17:53;;;;;;;1.73;1.10;;;;;;;24.88;25.75;96973.75;5033021;28;20045;-27
2021/03/25 06:20:26;;;;;;;1.60;1.17;;;;;;;24.89;25.68;96974.59;5027640;28;20029;-26
2021/03/25 06:23:07;;;;;;;1.27;1.08;;;;;;;24.90;25.72;96974.53;5007334;28;20029;-26
2021/03/25 06:25:39;;;;;;;1.67;1.10;;;;;;;24.91;25.67;96970.16;5033999;28;20028;-27
2021/03/25 06:28:17;;;;;;;2.08;1.23;;;;;;;24.90;25.54;96974.53;5032683;28;20494;-26
2021/03/25 06:30:58;;;;;;;1.65;1.15;;;;;;;24.92;25.56;96974.47;5017678;28;20108;-27
2021/03/25 06:33:27;;;;;;;1.15;0.90;;;;;;;24.92;25.61;96969.22;5016275;28;20063;-27
2021/03/25 06:35:54;;;;;;;1.48;1.30;;;;;;;24.92;25.77;96975.31;4998998;28;20044;-28
2021/03/25 06:38:23;;;;;;;1.10;1.00;;;;;;;24.94;25.68;96977.84;5015485;28;20112;-27
2021/03/25 06:41:08;;;;;;;3.08;1.10;;;;;;;24.94;25.57;96983.09;5016649;28;20143;-28
2021/03/25 06:43:57;;;;;;;1.30;1.20;;;;;;;24.95;25.74;96984.81;5025945;28;20115;-28
2021/03/25 06:46:27;;;;;;;1.33;1.10;;;;;;;24.96;25.61;96981.25;5010735;28;20036;-27
2021/03/25 06:48:57;;;;;;;4.60;2.28;;;;;;;24.97;25.68;96982.13;5026779;28;20382;-28
2021/03/25 06:51:25;;;;;;;4.07;2.00;;;;;;;24.96;25.90;96980.41;5013905;28;21012;-27
2021/03/25 06:53:52;;;;;;;5.22;1.27;;;;;;;24.96;25.86;96981.25;5024305;28;20737;-26
2021/03/25 06:56:28;;;;;;;2.25;1.30;;;;;;;24.96;25.94;96983.88;5014415;28;20112;-27
2021/03/25 06:58:56;;;;;;;1.73;1.48;;;;;;;24.97;25.66;96988.19;5014502;28;20489;-28
2021/03/25 07:01:32;;;;;;;4.93;1.40;;;;;;;24.98;25.77;96983.81;5008874;28;20035;-27
2021/03/25 07:04:03;;;;;;;1.80;1.40;;;;;;;24.98;25.91;96984.66;5031839;28;20033;-28
2021/03/25 07:06:29;;;;;;;1.45;1.33;;;;;;;25.00;25.90;96985.44;5017779;28;20029;-27
2021/03/25 07:08:55;;;;;;;2.10;1.45;;;;;;;24.99;25.95;96986.38;5006516;28;20789;-27
2021/03/25 07:11:21;;;;;;;2.15;1.33;;;;;;;24.99;25.75;96990.75;5004764;28;20059;-26
2021/03/25 07:13:54;;;;;;;2.15;1.42;;;;;;;25.00;25.97;96988.06;5001217;28;20041;-26
2021/03/25 07:16:19;;;;;;;1.45;1.23;;;;;;;25.01;25.98;96983.66;5025540;28;20032;-27
2021/03/25 07:19:04;;;;;;;1.58;1.10;;;;;;;25.00;25.81;96982.81;5005605;28;20508;-28
2021/03/25 07:21:32;;;;;;;8.05;1.63;;;;;;;25.02;26.03;96985.38;5022301;28;20445;-27
2021/03/25 07:24:03;;;;;;;2.63;1.65;;;;;;;25.03;25.92;96987.06;5033618;28;20056;-27
2021/03/25 07:26:34;;;;;;;3.65;1.55;;;;;;;25.03;25.96;96987.94;5025457;28;20112;-27
2021/03/25 07:29:12;;;;;;;4.80;1.48;;;;;;;25.03;26.05;96987.94;5021571;28;20108;-29
2021/03/25 07:31:41;;;;;;;14.07;1.90;;;;;;;25.04;25.93;96987.00;5027735;28;20030;-27
2021/03/25 07:34:07;;;;;;;16.05;2.17;;;;;;;25.04;25.93;96979.13;5005965;28;20029;-26
2021/03/25 07:36:55;;;;;;;9.27;2.50;;;;;;;25.05;26.02;96983.44;5004379;28;20036;-27
2021/03/25 07:39:26;;;;;;;13.55;2.30;;;;;;;25.05;25.96;96986.06;5008426;28;20025;-28
2021/03/25 07:41:53;;;;;;;2.87;1.87;;;;;;;25.05;26.09;96983.44;5029983;28;20374;-26
2021/03/25 07:44:24;;;;;;;5.45;1.80;;;;;;;25.07;25.98;96985.16;5015953;28;20517;-26
2021/03/25 07:46:54;;;;;;;6.75;1.88;;;;;;;25.08;26.08;96989.47;5029717;28;20025;-27
2021/03/25 07:49:21;;;;;;;11.35;2.35;;;;;;;25.08;25.85;96994.69;5029948;28;20041;-27
2021/03/25 07:51:58;;;;;;;9.77;2.92;;;;;;;25.07;25.70;96995.63;5028992;28;20505;-26
2021/03/25 07:54:23;;;;;;;6.95;2.88;;;;;;;25.04;25.57;96984.38;5032304;28;20034;-27
2021/03/25 07:57:19;;;;;;;9.77;2.92;;;;;;;25.02;25.23;96986.22;5032297;28;20051;-25
2021/03/25 07:59:58;;;;;;;8.57;3.10;;;;;;;24.98;25.08;96982.03;5023221;28;20087;-28
2021/03/25 08:02:23;;;;;;;9.80;3.00;;;;;;;24.99;25.20;96986.38;5015757;28;20043;-27
2021/03/25 08:04:49;;;;;;;8.18;2.53;;;;;;;24.97;24.94;96990.00;5029921;28;22751;-26
2021/03/25 08:07:14;;;;;;;9.93;2.83;;;;;;;24.96;25.13;96991.75;5027955;28;20139;-26
2021/03/25 08:09:48;;;;;;;12.60;3.05;;;;;;;24.95;25.17;96984.81;5020189;28;20032;-27
2021/03/25 08:12:27;;;;;;;8.95;2.80;;;;;;;24.95;24.91;96994.44;5021268;28;20092;-27
2021/03/25 08:15:23;;;;;;;9.30;2.80;;;;;;;24.94;24.94;96992.75;5026655;28;20029;-27
2021/03/25 08:17:52;;;;;;;10.80;3.17;;;;;;;24.94;24.78;96990.94;5014537;28;20898;-28
2021/03/25 08:21:05;;;;;;;4.15;2.83;;;;;;;24.92;25.00;96988.44;5021365;28;20033;-28
2021/03/25 08:23:39;;;;;;;5.07;2.47;;;;;;;24.94;24.75;96995.38;5008719;28;20797;-27
2021/03/25 08:26:11;;;;;;;6.32;2.60;;;;;;;24.92;24.92;96992.81;5032215;28;20036;-26
2021/03/25 08:28:47;;;;;;;5.63;2.42;;;;;;;24.93;24.97;96991.88;5003110;28;20032;-28
2021/03/25 08:31:20;;;;;;;5.47;2.78;;;;;;;24.93;24.98;96986.63;5026360;28;20033;-28
2021/03/25 08:33:58;;;;;;;6.70;2.95;;;;;;;24.94;24.97;96996.19;5030016;28;20041;-26
2021/03/25 08:36:33;;;;;;;9.32;2.97;;;;;;;24.95;24.97;96992.69;5033179;28;20032;-28
2021/03/25 08:39:17;;;;;;;5.93;2.70;;;;;;;24.95;24.76;96984.81;5032352;28;20028;-28
2021/03/25 08:41:42;;;;;;;7.07;2.60;;;;;;;24.96;24.84;96985.66;5025938;28;20033;-27
2021/03/25 08:44:32;;;;;;;4.28;2.60;;;;;;;24.96;24.90;96985.66;5030511;28;20032;-26
2021/03/25 08:47:14;;;;;;;11.15;3.17;;;;;;;24.96;24.84;96981.25;5008893;28;20024;-26
2021/03/25 08:49:41;;;;;;;;;;;;;;;24.97;24.75;96987.38;5009414;28;20033;-28
2021/03/25 08:52:09;;;;;;;18.58;3.40;;;;;;;24.97;24.88;96980.34;5024459;28;19943;-28
2021/03/25 08:54:40;;;;;;;15.88;3.55;;;;;;;24.97;24.41;96984.75;5019068;28;20029;-27
2021/03/25 08:57:26;;;;;;;13.52;4.35;;;;;;;24.93;23.87;96989.25;5010596;28;20029;-28
2021/03/25 08:59:59;;;;;;;21.30;4.35;;;;;;;24.86;23.45;96980.00;5026670;28;20075;-28
2021/03/25 09:02:50;;;;;;;22.70;4.68;;;;;;;24.78;23.31;96982.91;5015340;28;20083;-27
2021/03/25 09:05:15;;;;;;;12.25;4.10;;;;;;;24.71;23.53;96974.50;5023823;28;20308;-28
2021/03/25 09:07:43;;;;;;;13.25;3.83;;;;;;;24.71;23.40;96978.91;5029778;28;20064;-27
2021/03/25 09:10:13;;;;;;;15.63;3.60;;;;;;;24.70;23.57;96980.66;5034390;28;20516;-26
2021/03/25 09:12:38;;;;;;;11.63;3.15;;;;;;;24.73;23.74;96974.44;5031678;28;20037;-28
2021/03/25 09:15:05;;;;;;;11.10;2.83;;;;;;;24.75;23.57;96978.66;5032827;28;20083;-27
2021/03/25 09:17:37;;;;;;;8.65;3.10;;;;;;;24.78;23.62;96978.53;5038497;28;20037;-28
2021/03/25 09:20:06;;;;;;;17.30;2.63;;;;;;;24.84;23.69;96981.81;5036580;28;20010;-27
2021/03/25 09:22:40;;;;;;;8.75;2.55;;;;;;;24.87;23.67;96976.44;5006130;28;20037;-27
2021/03/25 09:25:24;;;;;;;11.65;3.03;;;;;;;24.91;23.80;96978.84;5038614;28;20035;-26
2021/03/25 09:27:56;;;;;;;4.43;2.50;;;;;;;24.95;23.90;96973.47;5039457;28;20552;-26
2021/03/25 09:30:22;;;;;;;18.52;2.70;;;;;;;24.98;23.90;96979.41;5038070;28;20124;-26
2021/03/25 09:32:47;;;;;;;7.03;2.33;;;;;;;25.02;23.96;96980.97;5033763;28;20092;-27
2021/03/25 09:35:38;;;;;;;5.57;2.55;;;;;;;25.06;24.22;96984.31;5009896;28;20024;-27
2021/03/25 09:38:04;;;;;;;8.32;3.15;;;;;;;25.10;24.20;96983.25;5027767;28;20570;-27
2021/03/25 09:40:47;;;;;;;19.27;3.47;;;;;;;25.14;24.09;96992.66;5023404;28;20029;-28
2021/03/25 09:43:26;;;;;;;12.75;3.03;;;;;;;25.17;24.32;96989.06;5023078;28;20025;-28
2021/03/25 09:45:53;;;;;;;21.55;3.05;;;;;;;25.21;24.41;96985.38;5029363;28;20508;-26
2021/03/25 09:48:25;;;;;;;21.45;3.70;;;;;;;25.22;24.41;96981.81;5029924;28;20116;-27
2021/03/25 09:51:18;;;;;;;11.13;3.20;;;;;;;25.26;24.43;96982.50;5005973;28;20043;-28
2021/03/25 09:53:51;;;;;;;14.85;3.72;;;;;;;25.29;24.63;96980.56;5020551;28;20636;-28
2021/03/25 09:56:27;;;;;;;14.95;4.00;;;;;;;25.33;24.40;96983.06;5019349;28;20054;-27
2021/03/25 09:58:52;;;;;;;13.50;3.30;;;;;;;25.36;24.59;96977.66;5037106;28;20064;-30
2021/03/25 10:01:44;;;;;;;14.70;3.90;;;;;;;25.39;24.81;96980.13;5032123;28;20029;-29
2021/03/25 10:04:38;;;;;;;11.98;3.70;;;;;;;25.41;24.67;96980.91;5036399;28;20465;-30
2021/03/25 10:07:27;;;;;;;14.23;3.75;;;;;;;25.43;24.81;96979.91;5023592;28;20069;-31
2021/03/25 10:09:58;;;;;;;16.67;3.72;;;;;;;25.47;24.65;96972.72;5024588;28;20037;-27
2021/03/25 10:12:46;;;;;;;13.13;3.50;;;;;;;25.49;25.01;96978.78;5037736;28;20585;-28
2021/03/25 10:15:29;;;;;;;10.57;3.47;;;;;;;25.50;24.77;96969.97;5036956;28;20025;-28
2021/03/25 10:17:55;;;;;;;11.50;3.65;;;;;;;25.54;24.82;96968.91;5033703;28;20033;-28
2021/03/25 10:20:54;;;;;;;9.27;3.40;;;;;;;25.56;25.09;96964.44;5035114;28;20098;-28
2021/03/25 10:23:34;;;;;;;8.02;3.22;;;;;;;25.57;25.05;96960.91;5034703;28;20032;-29
2021/03/25 10:26:15;;;;;;;12.30;3.60;;;;;;;25.60;25.16;96966.91;5037954;28;20382;-29
2021/03/25 10:29:11;;;;;;;9.88;3.78;;;;;;;25.61;25.14;96960.75;5030189;28;20444;-30
2021/03/25 10:32:02;;;;;;;11.23;3.30;;;;;;;25.64;25.35;96963.22;5002470;28;20036;-28
2021/03/25 10:34:37;;;;;;;9.15;2.58;;;;;;;25.65;25.33;96957.91;5030871;28;20041;-30
2021/03/25 10:37:25;;;;;;;12.60;3.20;;;;;;;25.68;25.21;96951.66;5008478;28;20183;-28
2021/03/25 10:39:51;;;;;;;8.80;3.13;;;;;;;25.69;25.56;96959.44;5037802;28;20082;-29
2021/03/25 10:42:25;;;;;;;10.20;2.85;;;;;;;25.72;25.42;96953.19;5017184;28;20584;-29
2021/03/25 10:44:51;;;;;;;7.68;2.63;;;;;;;25.73;25.34;96960.13;5034553;28;20040;-28
2021/03/25 10:47:19;;;;;;;7.35;2.75;;;;;;;25.74;25.29;96953.94;5035108;28;20112;-28
2021/03/25 10:49:54;;;;;;;6.70;2.60;;;;;;;25.76;25.44;96946.88;5041016;28;20060;-30
2021/03/25 10:52:35;;;;;;;8.27;2.55;;;;;;;25.78;25.38;96942.38;5033853;28;20024;-27
2021/03/25 10:55:19;;;;;;;4.68;2.28;;;;;;;25.78;25.58;96942.38;5034809;28;20306;-29
2021/03/25 10:57:50;;;;;;;4.68;2.42;;;;;;;25.81;25.46;96939.59;5033047;28;20025;-28
2021/03/25 11:00:21;;;;;;;;;;;;;;;25.81;25.67;96936.13;5019692;28;20025;-29
2021/03/25 11:02:46;;;;;;;6.20;3.35;;;;;;;25.83;25.63;96935.09;5034542;28;20280;-28
2021/03/25 11:05:21;;;;;;;5.55;2.13;;;;;;;25.83;25.63;96935.09;5028956;28;20394;-28
2021/03/25 11:07:52;;;;;;;5.45;2.35;;;;;;;25.84;25.75;96938.59;5034738;28;20132;-29
2021/03/25 11:10:22;;;;;;;3.70;2.20;;;;;;;25.85;25.69;96934.19;5018274;28;20037;-28
2021/03/25 11:12:58;;;;;;;5.78;2.50;;;;;;;25.86;25.71;96938.53;5036856;28;20040;-27
2021/03/25 11:15:30;;;;;;;4.95;2.20;;;;;;;25.88;25.80;96931.41;5015077;28;20521;-29
2021/03/25 11:17:55;;;;;;;5.82;2.00;;;;;;;25.88;25.80;96928.78;5042518;28;20035;-29
2021/03/25 11:20:22;;;;;;;5.82;2.20;;;;;;;25.89;26.01;96925.25;5034473;28;20032;-29
2021/03/25 11:22:48;;;;;;;7.93;2.10;;;;;;;25.90;25.92;96926.94;5016236;28;20056;-28
2021/03/25 11:25:16;;;;;;;5.82;2.17;;;;;;;25.91;26.03;96920.75;5030666;28;20690;-28
2021/03/25 11:27:42;;;;;;;5.30;2.00;;;;;;;25.91;25.90;96918.13;5010777;28;20376;-28
2021/03/25 11:30:22;;;;;;;5.78;2.20;;;;;;;25.91;26.01;96916.34;5015169;28;20056;-28
2021/03/25 11:32:48;;;;;;;4.53;1.95;;;;;;;25.90;25.73;96919.06;5016850;28;20047;-28
2021/03/25 11:35:22;;;;;;;6.22;2.15;;;;;;;25.89;25.63;96917.38;5034289;28;20633;-29
2021/03/25 11:37:48;;;;;;;5.97;1.88;;;;;;;25.88;25.77;96915.66;5037285;28;20029;-28
2021/03/25 11:40:21;;;;;;;3.88;2.00;;;;;;;25.86;25.84;96912.25;5014974;28;20036;-29
2021/03/25 11:42:47;;;;;;;5.57;2.00;;;;;;;25.84;25.82;96914.97;5032972;28;20297;-27
2021/03/25 11:45:40;;;;;;;5.25;2.08;;;;;;;25.82;25.82;96909.78;5009454;28;20029;-26
2021/03/25 11:48:27;;;;;;;6.30;1.90;;;;;;;25.82;26.23;96901.91;5030484;28;20033;-26
2021/03/25 11:50:54;;;;;;;4.13;1.85;;;;;;;25.82;26.11;96901.91;5018450;28;20635;-27
2021/03/25 11:53:32;;;;;;;4.10;2.20;;;;;;;25.80;26.26;96898.53;5024711;28;20025;-26
2021/03/25 11:56:18;;;;;;;4.40;2.45;;;;;;;25.78;26.46;96905.63;5035185;28;20028;-28
2021/03/25 11:58:49;;;;;;;2.60;1.80;;;;;;;25.78;26.39;96900.38;5018358;28;20045;-26
2021/03/25 12:01:23;;;;;;;5.90;1.90;;;;;;;25.77;26.56;96903.94;5037238;28;20037;-30
2021/03/25 12:03:51;;;;;;;9.68;3.33;;;;;;;25.76;26.23;96897.00;5037453;28;20032;-27
2021/03/25 12:06:20;;;;;;;8.82;3.90;;;;;;;25.74;25.61;96890.97;5038122;28;20031;-28